createdAt,value
2018-09-01T00:01:36.345Z,16.79
2018-09-01T00:04:05.385Z,16.82
2018-09-01T00:06:34.372Z,16.85
2018-09-01T00:09:04.564Z,16.87
2018-09-01T00:11:33.808Z,16.89
2018-09-01T00:14:02.807Z,16.89
2018-09-01T00:16:31.983Z,16.88
2018-09-01T00:19:00.995Z,16.87
2018-09-01T00:21:30.020Z,16.85
2018-09-01T00:24:02.269Z,16.81
2018-09-01T00:26:31.279Z,16.78
2018-09-01T00:29:00.252Z,16.75
2018-09-01T00:31:29.263Z,16.75
2018-09-01T00:33:58.259Z,16.77
2018-09-01T00:36:27.269Z,16.79
2018-09-01T00:39:02.512Z,16.79
2018-09-01T00:41:32.904Z,16.79
2018-09-01T00:44:01.973Z,16.77
2018-09-01T00:46:31.412Z,16.74
2018-09-01T00:49:00.453Z,16.72
2018-09-01T00:51:29.432Z,16.72
2018-09-01T00:53:58.473Z,16.71
2018-09-01T00:56:28.560Z,16.69
2018-09-01T00:58:57.638Z,16.68
2018-09-01T01:01:26.664Z,16.68
2018-09-01T01:03:55.683Z,16.67
2018-09-01T01:06:24.746Z,16.67
2018-09-01T01:08:53.788Z,16.66
2018-09-01T01:11:22.912Z,16.67
2018-09-01T01:13:51.928Z,16.64
2018-09-01T01:16:20.897Z,16.62
2018-09-01T01:18:49.927Z,16.60
2018-09-01T01:21:18.920Z,16.60
2018-09-01T01:23:47.953Z,16.58
2018-09-01T01:26:17.121Z,16.59
2018-09-01T01:28:46.336Z,16.56
2018-09-01T01:31:15.376Z,16.56
2018-09-01T01:33:44.397Z,16.50
2018-09-01T01:36:13.555Z,16.54
2018-09-01T01:38:42.570Z,16.52
2018-09-01T01:41:11.662Z,16.52
2018-09-01T01:43:40.731Z,16.54
2018-09-01T01:46:09.741Z,16.57
2018-09-01T01:48:38.757Z,16.57
2018-09-01T01:51:07.772Z,16.56
2018-09-01T01:53:36.801Z,16.56
2018-09-01T01:56:06.869Z,16.54
2018-09-01T01:58:35.847Z,16.54
2018-09-01T02:01:04.849Z,16.56
2018-09-01T02:03:33.944Z,16.58
2018-09-01T02:06:02.957Z,16.56
2018-09-01T02:08:31.962Z,16.57
2018-09-01T02:11:00.971Z,16.52
2018-09-01T02:13:29.969Z,16.53
2018-09-01T02:15:58.969Z,16.54
2018-09-01T02:18:28.064Z,16.54
2018-09-01T02:20:57.104Z,16.53
2018-09-01T02:23:26.807Z,16.55
2018-09-01T02:25:55.859Z,16.55
2018-09-01T02:28:25.687Z,16.55
2018-09-01T02:30:54.801Z,16.55
2018-09-01T02:33:23.922Z,16.51
2018-09-01T02:35:53.014Z,16.50
2018-09-01T02:38:22.011Z,16.52
2018-09-01T02:40:51.076Z,16.53
2018-09-01T02:43:20.133Z,16.54
2018-09-01T02:45:49.196Z,16.51
2018-09-01T02:48:18.299Z,16.57
2018-09-01T02:50:47.436Z,16.57
2018-09-01T02:53:16.631Z,16.57
2018-09-01T02:55:45.959Z,16.58
2018-09-01T02:58:15.033Z,16.52
2018-09-01T03:00:44.059Z,16.56
2018-09-01T03:03:13.144Z,16.55
2018-09-01T03:05:42.095Z,16.56
2018-09-01T03:08:11.080Z,16.57
2018-09-01T03:10:40.143Z,16.59
2018-09-01T03:13:09.137Z,16.60
2018-09-01T03:15:38.183Z,16.60
2018-09-01T03:18:07.235Z,16.57
2018-09-01T03:20:36.292Z,16.58
2018-09-01T03:23:05.344Z,16.60
2018-09-01T03:25:34.352Z,16.61
2018-09-01T03:28:03.325Z,16.62
2018-09-01T03:30:32.502Z,16.62
2018-09-01T03:33:01.707Z,16.61
2018-09-01T03:35:30.742Z,16.61
2018-09-01T03:37:59.919Z,16.61
2018-09-01T03:40:29.056Z,16.63
2018-09-01T03:42:58.017Z,16.66
2018-09-01T03:45:27.111Z,16.67
2018-09-01T03:47:56.372Z,16.70
2018-09-01T03:50:25.415Z,16.70
2018-09-01T03:52:54.438Z,16.70
2018-09-01T03:55:23.451Z,16.71
2018-09-01T03:57:52.580Z,16.70
2018-09-01T04:00:25.657Z,16.73
2018-09-01T04:02:54.903Z,16.73
2018-09-01T04:05:23.915Z,16.72
2018-09-01T04:07:53.255Z,16.73
2018-09-01T04:10:22.558Z,16.73
2018-09-01T04:12:51.575Z,16.77
2018-09-01T04:15:20.601Z,16.79
2018-09-01T04:17:49.644Z,16.80
2018-09-01T04:20:18.705Z,16.79
2018-09-01T04:22:47.731Z,16.80
2018-09-01T04:25:16.736Z,16.79
2018-09-01T04:27:45.732Z,16.81
2018-09-01T04:30:14.828Z,16.81
2018-09-01T04:32:43.830Z,16.81
2018-09-01T04:35:12.955Z,16.82
2018-09-01T04:37:41.952Z,16.81
2018-09-01T04:40:11.051Z,16.82
2018-09-01T04:42:40.073Z,16.82
2018-09-01T04:45:09.153Z,16.83
2018-09-01T04:47:38.250Z,16.83
2018-09-01T04:50:07.369Z,16.81
2018-09-01T04:52:36.432Z,16.80
2018-09-01T04:55:05.533Z,16.79
2018-09-01T04:57:34.610Z,16.77
2018-09-01T05:00:03.728Z,16.74
2018-09-01T05:02:32.731Z,16.69
2018-09-01T05:05:01.876Z,16.73
2018-09-01T05:07:31.055Z,16.74
2018-09-01T05:10:00.040Z,16.75
2018-09-01T05:12:29.094Z,16.78
2018-09-01T05:14:58.130Z,16.78
2018-09-01T05:17:27.256Z,16.79
2018-09-01T05:19:56.837Z,16.81
2018-09-01T05:22:25.844Z,16.79
2018-09-01T05:24:54.962Z,16.80
2018-09-01T05:27:24.048Z,16.81
2018-09-01T05:29:53.213Z,16.84
2018-09-01T05:32:22.237Z,16.84
2018-09-01T05:34:51.333Z,16.85
2018-09-01T05:37:20.385Z,16.84
2018-09-01T05:39:49.412Z,16.85
2018-09-01T05:42:18.449Z,16.84
2018-09-01T05:44:47.525Z,16.87
2018-09-01T05:47:16.535Z,16.83
2018-09-01T05:49:45.599Z,16.88
2018-09-01T05:52:14.593Z,16.90
2018-09-01T05:54:43.614Z,16.92
2018-09-01T05:57:12.622Z,16.95
2018-09-01T05:59:41.617Z,16.93
2018-09-01T06:02:10.670Z,16.95
2018-09-01T06:04:39.704Z,16.93
2018-09-01T06:07:08.807Z,16.98
2018-09-01T06:09:37.826Z,16.99
2018-09-01T06:12:06.858Z,16.99
2018-09-01T06:14:35.855Z,16.96
2018-09-01T06:17:05.418Z,17.01
2018-09-01T06:19:35.278Z,17.04
2018-09-01T06:22:04.389Z,17.05
2018-09-01T06:24:33.409Z,17.07
2018-09-01T06:27:07.313Z,17.07
2018-09-01T06:29:36.390Z,17.12
2018-09-01T06:32:07.093Z,17.13
2018-09-01T06:34:36.151Z,17.13
2018-09-01T06:37:05.314Z,17.10
2018-09-01T06:39:34.858Z,17.14
2018-09-01T06:42:04.323Z,17.16
2018-09-01T06:44:33.548Z,17.20
2018-09-01T06:47:02.597Z,17.21
2018-09-01T06:49:31.897Z,17.24
2018-09-01T06:52:00.981Z,17.26
2018-09-01T06:54:30.009Z,17.27
2018-09-01T06:56:59.558Z,17.33
2018-09-01T06:59:28.713Z,17.38
2018-09-01T07:01:57.848Z,17.40
2018-09-01T07:04:26.907Z,17.50
2018-09-01T07:06:55.898Z,17.57
2018-09-01T07:09:24.895Z,17.61
2018-09-01T07:11:53.906Z,17.66
2018-09-01T07:14:22.924Z,17.68
2018-09-01T07:16:52.029Z,17.72
2018-09-01T07:19:21.044Z,17.78
2018-09-01T07:21:50.093Z,17.85
2018-09-01T07:24:19.176Z,17.92
2018-09-01T07:26:48.314Z,17.99
2018-09-01T07:29:17.793Z,18.06
2018-09-01T07:31:47.011Z,18.11
2018-09-01T07:34:16.880Z,18.16
2018-09-01T07:36:46.396Z,18.22
2018-09-01T07:39:16.509Z,18.29
2018-09-01T07:41:46.931Z,18.37
2018-09-01T07:44:26.710Z,18.41
2018-09-01T07:46:56.158Z,18.46
2018-09-01T07:49:25.185Z,18.50
2018-09-01T07:51:54.734Z,18.52
2018-09-01T07:54:23.853Z,18.55
2018-09-01T07:56:52.873Z,18.61
2018-09-01T07:59:22.080Z,18.65
2018-09-01T08:01:52.406Z,18.68
2018-09-01T08:04:45.019Z,18.69
2018-09-01T08:07:14.395Z,18.71
2018-09-01T08:09:43.551Z,18.70
2018-09-01T08:12:12.561Z,18.71
2018-09-01T08:14:41.787Z,18.74
2018-09-01T08:17:10.785Z,18.78
2018-09-01T08:19:39.997Z,18.83
2018-09-01T08:22:09.174Z,18.89
2018-09-01T08:24:38.259Z,18.94
2018-09-01T08:27:07.389Z,19.00
2018-09-01T08:29:36.415Z,19.07
2018-09-01T08:32:05.518Z,19.15
2018-09-01T08:34:34.685Z,19.23
2018-09-01T08:37:03.859Z,19.31
2018-09-01T08:39:33.141Z,19.35
2018-09-01T08:42:02.340Z,19.40
2018-09-01T08:44:31.481Z,19.43
2018-09-01T08:47:00.611Z,19.48
2018-09-01T08:49:29.774Z,19.52
2018-09-01T08:51:58.891Z,19.57
2018-09-01T08:54:28.016Z,19.62
2018-09-01T08:56:57.112Z,19.67
2018-09-01T08:59:26.368Z,19.70
2018-09-01T09:01:55.563Z,19.73
2018-09-01T09:04:24.688Z,19.81
2018-09-01T09:06:53.901Z,19.88
2018-09-01T09:09:23.085Z,19.95
2018-09-01T09:11:52.199Z,20.01
2018-09-01T09:14:21.266Z,20.06
2018-09-01T09:16:51.572Z,20.13
2018-09-01T09:19:20.811Z,20.18
2018-09-01T09:21:49.896Z,20.24
2018-09-01T09:24:19.641Z,20.27
2018-09-01T09:26:48.960Z,20.30
2018-09-01T09:29:18.025Z,20.33
2018-09-01T09:31:47.148Z,20.38
2018-09-01T09:34:17.390Z,20.45
2018-09-01T09:36:46.520Z,20.51
2018-09-01T09:39:15.686Z,20.58
2018-09-01T09:41:46.270Z,20.62
2018-09-01T09:44:15.618Z,20.66
2018-09-01T09:46:45.582Z,20.68
2018-09-01T09:49:15.501Z,20.71
2018-09-01T09:51:45.263Z,20.73
2018-09-01T09:54:14.373Z,20.78
2018-09-01T09:56:43.575Z,20.83
2018-09-01T09:59:13.054Z,20.90
2018-09-01T10:01:42.746Z,20.97
2018-09-01T10:04:13.301Z,21.00
2018-09-01T10:06:43.288Z,21.04
2018-09-01T10:09:14.925Z,21.09
2018-09-01T10:11:46.220Z,21.13
2018-09-01T10:14:18.114Z,21.16
2018-09-01T10:16:48.015Z,21.18
2018-09-01T10:19:17.293Z,21.20
2018-09-01T10:21:46.841Z,21.25
2018-09-01T10:24:15.972Z,21.29
2018-09-01T10:26:45.326Z,21.34
2018-09-01T10:29:14.681Z,21.38
2018-09-01T10:31:44.081Z,21.43
2018-09-01T10:34:13.269Z,21.46
2018-09-01T10:36:43.220Z,21.47
2018-09-01T10:39:13.129Z,21.50
2018-09-01T10:41:43.332Z,21.51
2018-09-01T10:44:14.064Z,21.51
2018-09-01T10:46:43.160Z,21.54
2018-09-01T10:49:12.417Z,21.59
2018-09-01T10:51:44.945Z,21.64
2018-09-01T10:54:14.053Z,21.68
2018-09-01T10:56:43.184Z,21.73
2018-09-01T10:59:12.373Z,21.80
2018-09-01T11:01:41.489Z,21.85
2018-09-01T11:04:10.774Z,21.91
2018-09-01T11:06:40.051Z,21.97
2018-09-01T11:09:11.248Z,22.04
2018-09-01T11:11:40.390Z,22.09
2018-09-01T11:14:13.729Z,22.12
2018-09-01T11:16:42.900Z,22.16
2018-09-01T11:19:12.665Z,22.19
2018-09-01T11:21:43.603Z,22.19
2018-09-01T11:24:13.380Z,22.18
2018-09-01T11:26:42.544Z,22.17
2018-09-01T11:29:11.949Z,22.19
2018-09-01T11:31:41.129Z,22.21
2018-09-01T11:34:10.370Z,22.22
2018-09-01T11:36:40.488Z,22.28
2018-09-01T11:39:11.005Z,22.33
2018-09-01T11:41:41.605Z,22.36
2018-09-01T11:44:10.720Z,22.37
2018-09-01T11:46:40.763Z,22.39
2018-09-01T11:49:10.043Z,22.38
2018-09-01T11:51:40.153Z,22.38
2018-09-01T11:54:09.511Z,22.38
2018-09-01T11:56:44.429Z,22.38
2018-09-01T11:59:14.734Z,22.40
2018-09-01T12:01:44.607Z,22.40
2018-09-01T12:04:13.821Z,22.39
2018-09-01T12:06:44.745Z,22.41
2018-09-01T12:09:16.628Z,22.42
2018-09-01T12:11:46.294Z,22.43
2018-09-01T12:14:15.644Z,22.49
2018-09-01T12:16:44.689Z,22.53
2018-09-01T12:19:13.856Z,22.58
2018-09-01T12:21:43.170Z,22.61
2018-09-01T12:24:12.226Z,22.60
2018-09-01T12:26:44.433Z,22.63
2018-09-01T12:29:13.761Z,22.66
2018-09-01T12:31:43.711Z,22.66
2018-09-01T12:34:12.888Z,22.66
2018-09-01T12:36:42.608Z,22.65
2018-09-01T12:39:11.786Z,22.65
2018-09-01T12:41:41.120Z,22.65
2018-09-01T12:46:45.122Z,22.62
2018-09-01T12:49:15.268Z,22.66
2018-09-01T12:51:45.708Z,22.69
2018-09-01T12:54:14.932Z,22.72
2018-09-01T12:56:48.790Z,22.72
2018-09-01T12:59:18.515Z,22.69
2018-09-01T13:01:47.576Z,22.68
2018-09-01T13:04:16.795Z,22.71
2018-09-01T13:06:46.169Z,22.67
2018-09-01T13:09:16.301Z,22.59
2018-09-01T13:11:45.519Z,22.58
2018-09-01T13:14:14.774Z,22.56
2018-09-01T13:16:44.026Z,22.58
2018-09-01T13:19:13.173Z,22.64
2018-09-01T13:21:42.298Z,22.67
2018-09-01T13:24:11.325Z,22.65
2018-09-01T13:26:41.835Z,22.57
2018-09-01T13:29:11.101Z,22.48
2018-09-01T13:31:40.373Z,22.40
2018-09-01T13:34:09.747Z,22.30
2018-09-01T13:36:43.052Z,22.23
2018-09-01T13:39:12.463Z,22.21
2018-09-01T13:41:43.616Z,22.17
2018-09-01T13:44:15.715Z,22.13
2018-09-01T13:46:45.043Z,22.15
2018-09-01T13:49:14.403Z,22.15
2018-09-01T13:51:43.858Z,22.14
2018-09-01T13:54:13.147Z,22.13
2018-09-01T13:56:43.109Z,22.11
2018-09-01T13:59:12.216Z,22.14
2018-09-01T14:01:41.870Z,22.19
2018-09-01T14:04:11.342Z,22.22
2018-09-01T14:06:41.526Z,22.23
2018-09-01T14:09:11.432Z,22.25
2018-09-01T14:11:40.749Z,22.33
2018-09-01T14:14:09.885Z,22.36
2018-09-01T14:16:39.044Z,22.33
2018-09-01T14:19:09.392Z,22.34
2018-09-01T14:21:38.581Z,22.35
2018-09-01T14:24:07.867Z,22.35
2018-09-01T14:26:37.322Z,22.38
2018-09-01T14:29:06.937Z,22.36
2018-09-01T14:31:36.638Z,22.33
2018-09-01T14:34:05.926Z,22.33
2018-09-01T14:36:35.605Z,22.38
2018-09-01T14:39:06.334Z,22.41
2018-09-01T14:41:37.142Z,22.41
2018-09-01T14:44:06.264Z,22.45
2018-09-01T14:46:41.494Z,22.50
2018-09-01T14:49:10.554Z,22.55
2018-09-01T14:51:40.610Z,22.58
2018-09-01T14:54:09.931Z,22.61
2018-09-01T14:56:41.883Z,22.69
2018-09-01T14:59:12.336Z,22.79
2018-09-01T15:01:42.387Z,22.82
2018-09-01T15:04:11.703Z,22.86
2018-09-01T15:06:41.187Z,22.87
2018-09-01T15:09:10.434Z,22.89
2018-09-01T15:11:39.648Z,22.85
2018-09-01T15:14:09.389Z,22.78
2018-09-01T15:16:38.623Z,22.69
2018-09-01T15:19:09.547Z,22.60
2018-09-01T15:21:38.932Z,22.54
2018-09-01T15:24:08.487Z,22.47
2018-09-01T15:26:38.379Z,22.43
2018-09-01T15:29:09.716Z,22.38
2018-09-01T15:31:39.664Z,22.34
2018-09-01T15:34:08.908Z,22.28
2018-09-01T15:36:37.976Z,22.27
2018-09-01T15:39:07.495Z,22.25
2018-09-01T15:41:36.740Z,22.29
2018-09-01T15:44:05.905Z,22.32
2018-09-01T15:46:35.059Z,22.36
2018-09-01T15:49:04.420Z,22.37
2018-09-01T15:51:33.647Z,22.40
2018-09-01T15:54:02.814Z,22.41
2018-09-01T15:56:32.353Z,22.43
2018-09-01T15:59:01.597Z,22.47
2018-09-01T16:03:58.489Z,22.43
2018-09-01T16:06:27.531Z,22.39
2018-09-01T16:08:58.520Z,22.39
2018-09-01T16:11:28.155Z,22.38
2018-09-01T16:13:57.156Z,22.36
2018-09-01T16:16:26.275Z,22.30
2018-09-01T16:18:55.326Z,22.30
2018-09-01T16:21:24.584Z,22.32
2018-09-01T16:23:53.629Z,22.33
2018-09-01T16:26:22.819Z,22.33
2018-09-01T16:28:51.832Z,22.29
2018-09-01T16:31:20.987Z,22.28
2018-09-01T16:33:50.101Z,22.29
2018-09-01T16:36:19.956Z,22.29
2018-09-01T16:38:49.024Z,22.27
2018-09-01T16:41:18.753Z,22.25
2018-09-01T16:44:02.560Z,22.25
2018-09-01T16:46:31.757Z,22.21
2018-09-01T16:49:00.832Z,22.16
2018-09-01T16:51:29.928Z,22.13
2018-09-01T16:53:59.845Z,22.14
2018-09-01T16:56:28.930Z,22.11
2018-09-01T16:59:00.833Z,22.09
2018-09-01T17:01:31.045Z,22.05
2018-09-01T17:04:00.185Z,22.01
2018-09-01T17:06:29.247Z,22.01
2018-09-01T17:08:58.254Z,22.01
2018-09-01T17:11:34.073Z,22.03
2018-09-01T17:14:03.189Z,22.05
2018-09-01T17:16:33.492Z,22.04
2018-09-01T17:19:02.901Z,22.02
2018-09-01T17:21:32.100Z,22.02
2018-09-01T17:24:01.864Z,22.00
2018-09-01T17:26:30.965Z,21.95
2018-09-01T17:29:00.134Z,21.96
2018-09-01T17:31:30.267Z,21.96
2018-09-01T17:34:00.374Z,21.94
2018-09-01T17:36:29.504Z,21.93
2018-09-01T17:38:59.664Z,21.93
2018-09-01T17:41:28.741Z,21.91
2018-09-01T17:43:57.768Z,21.90
2018-09-01T17:46:26.841Z,21.85
2018-09-01T17:48:56.920Z,21.81
2018-09-01T17:51:26.570Z,21.79
2018-09-01T17:53:55.828Z,21.80
2018-09-01T17:56:25.247Z,21.79
2018-09-01T17:58:54.499Z,21.77
2018-09-01T18:01:25.914Z,21.73
2018-09-01T18:03:56.290Z,21.73
2018-09-01T18:06:25.833Z,21.71
2018-09-01T18:08:54.983Z,21.68
2018-09-01T18:11:24.060Z,21.66
2018-09-01T18:13:53.650Z,21.67
2018-09-01T18:16:23.612Z,21.70
2018-09-01T18:18:53.725Z,21.70
2018-09-01T18:21:22.798Z,21.67
2018-09-01T18:23:56.437Z,21.64
2018-09-01T18:26:25.518Z,21.61
2018-09-01T18:28:55.277Z,21.60
2018-09-01T18:31:24.615Z,21.59
2018-09-01T18:33:53.847Z,21.59
2018-09-01T18:36:23.871Z,21.59
2018-09-01T18:38:53.196Z,21.58
2018-09-01T18:41:22.352Z,21.55
2018-09-01T18:43:51.536Z,21.52
2018-09-01T18:46:20.547Z,21.50
2018-09-01T18:48:49.675Z,21.47
2018-09-01T18:51:18.691Z,21.47
2018-09-01T18:53:47.819Z,21.44
2018-09-01T18:56:17.176Z,21.43
2018-09-01T18:58:46.809Z,21.40
2018-09-01T19:01:16.205Z,21.39
2018-09-01T19:03:45.238Z,21.37
2018-09-01T19:06:14.397Z,21.35
2018-09-01T19:08:43.545Z,21.34
2018-09-01T19:11:12.595Z,21.34
2018-09-01T19:13:41.950Z,21.32
2018-09-01T19:16:11.011Z,21.31
2018-09-01T19:18:40.159Z,21.29
2018-09-01T19:21:09.221Z,21.28
2018-09-01T19:23:38.357Z,21.28
2018-09-01T19:26:07.460Z,21.26
2018-09-01T19:28:36.719Z,21.23
2018-09-01T19:31:05.783Z,21.19
2018-09-01T19:33:35.806Z,21.14
2018-09-01T19:36:05.412Z,21.09
2018-09-01T19:38:34.507Z,21.05
2018-09-01T19:41:03.573Z,21.01
2018-09-01T19:43:32.709Z,20.98
2018-09-01T19:46:02.140Z,20.93
2018-09-01T19:48:31.144Z,20.87
2018-09-01T19:51:00.200Z,20.79
2018-09-01T19:53:29.269Z,20.73
2018-09-01T19:55:58.359Z,20.69
2018-09-01T19:58:27.592Z,20.66
2018-09-01T20:00:56.731Z,20.62
2018-09-01T20:03:25.971Z,20.59
2018-09-01T20:05:57.611Z,20.57
2018-09-01T20:08:27.170Z,20.53
2018-09-01T20:10:56.244Z,20.53
2018-09-01T20:13:25.303Z,20.52
2018-09-01T20:15:54.364Z,20.48
2018-09-01T20:18:23.549Z,20.43
2018-09-01T20:20:54.220Z,20.39
2018-09-01T20:23:23.272Z,20.34
2018-09-01T20:25:52.325Z,20.30
2018-09-01T20:28:21.444Z,20.25
2018-09-01T20:30:50.661Z,20.22
2018-09-01T20:33:20.157Z,20.17
2018-09-01T20:35:55.355Z,20.14
2018-09-01T20:38:25.303Z,20.11
2018-09-01T20:40:54.418Z,20.10
2018-09-01T20:43:24.034Z,20.06
2018-09-01T20:45:53.448Z,20.04
2018-09-01T20:48:22.479Z,20.02
2018-09-01T20:50:52.855Z,19.98
2018-09-01T20:53:21.930Z,19.94
2018-09-01T20:55:51.099Z,19.91
2018-09-01T20:58:20.135Z,19.89
2018-09-01T21:00:49.312Z,19.86
2018-09-01T21:03:18.612Z,19.84
2018-09-01T21:05:47.719Z,19.82
2018-09-01T21:08:16.840Z,19.78
2018-09-01T21:10:46.560Z,19.76
2018-09-01T21:13:15.649Z,19.76
2018-09-01T21:15:44.859Z,19.76
2018-09-01T21:18:14.268Z,19.77
2018-09-01T21:20:43.438Z,19.77
2018-09-01T21:23:12.578Z,19.74
2018-09-01T21:25:41.673Z,19.74
2018-09-01T21:28:10.836Z,19.74
2018-09-01T21:30:39.894Z,19.72
2018-09-01T21:33:09.062Z,19.72
2018-09-01T21:35:38.148Z,19.69
2018-09-01T21:38:07.261Z,19.66
2018-09-01T21:40:36.270Z,19.62
2018-09-01T21:43:05.347Z,19.59
2018-09-01T21:45:34.523Z,19.59
2018-09-01T21:48:03.614Z,19.60
2018-09-01T21:50:32.755Z,19.61
2018-09-01T21:53:02.824Z,19.62
2018-09-01T21:55:31.869Z,19.60
2018-09-01T21:58:01.027Z,19.59
2018-09-01T22:00:31.073Z,19.54
2018-09-01T22:03:00.234Z,19.51
2018-09-01T22:05:29.380Z,19.49
2018-09-01T22:07:58.467Z,19.49
2018-09-01T22:10:27.500Z,19.48
2018-09-01T22:12:56.552Z,19.47
2018-09-01T22:15:25.710Z,19.47
2018-09-01T22:18:09.722Z,19.45
2018-09-01T22:20:42.455Z,19.45
2018-09-01T22:23:27.561Z,19.46
2018-09-01T22:26:13.321Z,19.48
2018-09-01T22:28:58.476Z,19.48
2018-09-01T22:31:41.888Z,19.48
2018-09-01T22:34:29.547Z,19.49
2018-09-01T22:36:58.885Z,19.48
2018-09-01T22:39:45.919Z,19.47
2018-09-01T22:42:15.276Z,19.47
2018-09-01T22:44:45.281Z,19.44
2018-09-01T22:47:25.976Z,19.43
2018-09-01T22:50:10.714Z,19.42
2018-09-01T22:52:52.385Z,19.41
2018-09-01T22:55:38.796Z,19.38
2018-09-01T22:58:08.464Z,19.38
2018-09-01T23:00:51.914Z,19.38
2018-09-01T23:03:37.935Z,19.37
2018-09-01T23:06:08.034Z,19.34
2018-09-01T23:08:52.492Z,19.33
2018-09-01T23:11:21.558Z,19.29
2018-09-01T23:13:50.598Z,19.27
2018-09-01T23:16:19.668Z,19.26
2018-09-01T23:18:48.814Z,19.24
2018-09-01T23:21:17.894Z,19.26
2018-09-01T23:23:46.983Z,19.26
2018-09-01T23:26:16.083Z,19.27
2018-09-01T23:28:45.273Z,19.25
2018-09-01T23:31:14.462Z,19.23
2018-09-01T23:33:43.546Z,19.23
2018-09-01T23:36:12.587Z,19.23
2018-09-01T23:38:41.939Z,19.23
2018-09-01T23:41:10.993Z,19.21
2018-09-01T23:43:40.087Z,19.16
2018-09-01T23:46:09.424Z,19.13
2018-09-01T23:48:38.575Z,19.12
2018-09-01T23:51:07.686Z,19.12
2018-09-01T23:53:36.784Z,19.09
2018-09-01T23:56:06.370Z,19.08
2018-09-01T23:58:35.430Z,19.06
